createdAt,value
2023-05-05T00:01:30.713Z,12.60
2023-05-05T00:03:58.046Z,10.63
2023-05-05T00:06:24.468Z,11.20
2023-05-05T00:08:50.918Z,9.93
2023-05-05T00:11:17.421Z,10.67
2023-05-05T00:13:43.867Z,13.15
2023-05-05T00:16:10.523Z,12.40
2023-05-05T00:18:37.525Z,15.02
2023-05-05T00:21:04.431Z,12.68
2023-05-05T00:23:30.940Z,11.20
2023-05-05T00:25:57.360Z,11.55
2023-05-05T00:28:23.858Z,12.10
2023-05-05T00:30:50.464Z,13.25
2023-05-05T00:33:17.179Z,14.02
2023-05-05T00:35:43.615Z,9.90
2023-05-05T00:38:10.257Z,10.18
2023-05-05T00:40:37.945Z,11.50
2023-05-05T00:43:04.401Z,10.82
2023-05-05T00:45:30.983Z,10.50
2023-05-05T00:47:59.286Z,9.63
2023-05-05T00:50:28.733Z,10.30
2023-05-05T00:53:00.360Z,12.65
2023-05-05T00:55:27.862Z,11.60
2023-05-05T00:57:54.331Z,9.48
2023-05-05T01:00:20.846Z,11.23
2023-05-05T01:02:47.409Z,13.80
2023-05-05T01:05:16.081Z,12.48
2023-05-05T01:08:11.745Z,11.43
2023-05-05T01:10:43.238Z,15.20
2023-05-05T01:13:50.110Z,10.90
2023-05-05T01:16:28.810Z,11.27
2023-05-05T01:19:20.463Z,11.23
2023-05-05T01:21:56.369Z,14.30
2023-05-05T01:25:03.805Z,15.48
2023-05-05T01:27:56.000Z,15.43
2023-05-05T01:31:00.570Z,14.27
2023-05-05T01:33:31.546Z,15.40
2023-05-05T01:36:10.476Z,13.98
2023-05-05T01:38:41.181Z,12.15
2023-05-05T01:41:24.172Z,14.83
2023-05-05T01:43:52.707Z,13.10
2023-05-05T01:46:21.768Z,12.23
2023-05-05T01:48:48.972Z,14.85
2023-05-05T01:51:18.008Z,14.52
2023-05-05T01:53:47.090Z,13.03
2023-05-05T01:56:15.698Z,12.80
2023-05-05T01:58:49.446Z,12.05
2023-05-05T02:01:18.406Z,10.82
2023-05-05T02:03:47.359Z,11.82
2023-05-05T02:06:16.208Z,12.97
2023-05-05T02:08:44.644Z,12.10
2023-05-05T02:11:12.367Z,10.80
2023-05-05T02:13:42.147Z,11.40
2023-05-05T02:16:09.602Z,11.15
2023-05-05T02:18:37.461Z,11.10
2023-05-05T02:21:04.444Z,10.43
2023-05-05T02:23:31.330Z,9.15
2023-05-05T02:26:12.566Z,10.82
2023-05-05T02:28:42.339Z,9.30
2023-05-05T02:31:10.801Z,11.27
2023-05-05T02:33:40.291Z,9.15
2023-05-05T02:36:19.601Z,9.52
2023-05-05T02:38:48.594Z,9.50
2023-05-05T02:41:18.738Z,8.57
2023-05-05T02:43:48.554Z,10.00
2023-05-05T02:46:16.020Z,10.05
2023-05-05T02:48:42.481Z,8.68
2023-05-05T02:51:08.974Z,11.32
2023-05-05T02:53:35.561Z,9.50
2023-05-05T02:56:08.055Z,11.97
2023-05-05T02:58:44.096Z,8.60
2023-05-05T03:01:25.772Z,9.45
2023-05-05T03:04:12.055Z,12.13
2023-05-05T03:06:45.573Z,8.88
2023-05-05T03:09:17.021Z,9.20
2023-05-05T03:11:54.690Z,8.25
2023-05-05T03:14:22.242Z,8.20
2023-05-05T03:16:49.498Z,9.82
2023-05-05T03:19:18.648Z,8.00
2023-05-05T03:21:45.682Z,8.43
2023-05-05T03:24:16.365Z,7.63
2023-05-05T03:26:44.136Z,10.65
2023-05-05T03:29:10.829Z,7.35
2023-05-05T03:31:37.442Z,9.00
2023-05-05T03:34:04.154Z,8.67
2023-05-05T03:36:30.822Z,8.13
2023-05-05T03:38:58.049Z,10.15
2023-05-05T03:41:25.028Z,8.10
2023-05-05T03:43:51.588Z,9.60
2023-05-05T03:46:18.175Z,8.30
2023-05-05T03:48:44.846Z,8.48
2023-05-05T03:51:12.723Z,7.57
2023-05-05T03:53:39.316Z,8.80
2023-05-05T03:56:05.795Z,10.65
2023-05-05T03:58:32.355Z,8.40
2023-05-05T04:00:58.909Z,10.68
2023-05-05T04:03:25.578Z,10.52
2023-05-05T04:05:52.160Z,7.85
2023-05-05T04:08:18.572Z,8.32
2023-05-05T04:10:45.696Z,7.80
2023-05-05T04:13:12.234Z,7.88
2023-05-05T04:15:43.799Z,10.52
2023-05-05T04:18:10.330Z,8.27
2023-05-05T04:20:36.808Z,10.20
2023-05-05T04:23:03.326Z,10.90
2023-05-05T04:25:29.788Z,8.23
2023-05-05T04:27:56.370Z,9.35
2023-05-05T04:30:22.827Z,9.48
2023-05-05T04:32:49.254Z,8.52
2023-05-05T04:35:15.705Z,9.07
2023-05-05T04:37:42.166Z,10.15
2023-05-05T04:40:09.500Z,7.80
2023-05-05T04:42:36.629Z,9.07
2023-05-05T04:45:03.939Z,10.60
2023-05-05T04:47:30.483Z,10.30
2023-05-05T04:49:57.108Z,10.82
2023-05-05T04:52:23.574Z,8.43
2023-05-05T04:54:50.020Z,8.70
2023-05-05T04:57:16.425Z,9.90
2023-05-05T04:59:42.846Z,10.50
2023-05-05T05:02:09.373Z,7.60
2023-05-05T05:04:35.944Z,8.38
2023-05-05T05:07:02.522Z,9.20
2023-05-05T05:09:29.038Z,9.80
2023-05-05T05:12:00.527Z,11.50
2023-05-05T05:14:28.141Z,58.15
2023-05-05T05:16:54.872Z,18.77
2023-05-05T05:19:21.456Z,11.73
2023-05-05T05:21:47.861Z,9.80
2023-05-05T05:24:14.291Z,12.77
2023-05-05T05:26:40.728Z,9.60
2023-05-05T05:29:07.194Z,9.80
2023-05-05T05:31:34.503Z,11.60
2023-05-05T05:34:01.150Z,10.05
2023-05-05T05:36:27.633Z,11.33
2023-05-05T05:38:54.096Z,12.52
2023-05-05T05:41:21.641Z,14.27
2023-05-05T05:43:48.113Z,13.70
2023-05-05T05:46:14.761Z,15.63
2023-05-05T05:48:41.382Z,14.40
2023-05-05T05:51:07.815Z,14.68
2023-05-05T05:53:34.337Z,13.50
2023-05-05T05:56:01.539Z,13.45
2023-05-05T05:58:27.959Z,12.23
2023-05-05T06:00:54.612Z,13.67
2023-05-05T06:05:47.536Z,13.48
2023-05-05T06:08:14.011Z,14.20
2023-05-05T06:10:41.083Z,12.38
2023-05-05T06:13:07.745Z,13.60
2023-05-05T06:15:34.262Z,14.30
2023-05-05T06:18:00.748Z,16.27
2023-05-05T06:20:32.103Z,14.65
2023-05-05T06:22:58.505Z,15.25
2023-05-05T06:25:24.987Z,11.87
2023-05-05T06:27:51.401Z,9.93
2023-05-05T06:30:18.214Z,9.70
2023-05-05T06:32:44.688Z,11.85
2023-05-05T06:35:11.208Z,12.60
2023-05-05T06:37:37.654Z,11.60
2023-05-05T06:40:04.672Z,12.65
2023-05-05T06:42:32.187Z,9.02
2023-05-05T06:44:58.710Z,11.27
2023-05-05T06:47:25.322Z,16.33
2023-05-05T06:49:51.926Z,7.47
2023-05-05T06:52:18.464Z,9.32
2023-05-05T06:54:45.858Z,10.63
2023-05-05T06:57:12.287Z,9.32
2023-05-05T06:59:38.695Z,12.82
2023-05-05T07:02:05.189Z,8.13
2023-05-05T07:04:31.661Z,9.73
2023-05-05T07:06:58.447Z,9.02
2023-05-05T07:09:24.892Z,10.07
2023-05-05T07:11:51.356Z,9.02
2023-05-05T07:14:17.850Z,9.77
2023-05-05T07:16:44.329Z,12.50
2023-05-05T07:19:10.817Z,11.70
2023-05-05T07:21:37.313Z,11.45
2023-05-05T07:24:04.095Z,10.25
2023-05-05T07:26:30.889Z,6.63
2023-05-05T07:28:58.768Z,6.35
2023-05-05T07:31:26.318Z,8.70
2023-05-05T07:33:52.768Z,9.80
2023-05-05T07:36:19.501Z,7.35
2023-05-05T07:38:46.106Z,6.33
2023-05-05T07:41:19.752Z,9.18
2023-05-05T07:43:46.340Z,7.43
2023-05-05T07:46:13.818Z,7.05
2023-05-05T07:48:41.525Z,9.50
2023-05-05T07:51:08.472Z,7.27
2023-05-05T07:53:35.079Z,6.45
2023-05-05T07:56:01.582Z,4.90
2023-05-05T07:58:28.042Z,6.32
2023-05-05T08:00:54.557Z,7.50
2023-05-05T08:03:24.458Z,7.27
2023-05-05T08:05:55.525Z,9.73
2023-05-05T08:08:24.957Z,5.47
2023-05-05T08:10:53.098Z,5.72
2023-05-05T08:13:19.933Z,5.93
2023-05-05T08:15:47.284Z,8.30
2023-05-05T08:18:14.485Z,6.85
2023-05-05T08:20:41.030Z,8.48
2023-05-05T08:23:07.802Z,6.68
2023-05-05T08:25:34.270Z,4.25
2023-05-05T08:28:00.922Z,5.50
2023-05-05T08:30:27.526Z,7.47
2023-05-05T08:32:54.118Z,8.30
2023-05-05T08:35:20.799Z,6.00
2023-05-05T08:37:47.258Z,5.43
2023-05-05T08:40:14.584Z,5.30
2023-05-05T08:42:42.183Z,5.20
2023-05-05T08:45:10.667Z,3.22
2023-05-05T08:47:38.498Z,4.95
2023-05-05T08:50:08.184Z,4.65
2023-05-05T08:52:40.466Z,8.57
2023-05-05T08:55:17.996Z,6.18
2023-05-05T08:57:51.591Z,4.38
2023-05-05T09:00:24.102Z,3.42
2023-05-05T09:02:50.819Z,5.35
2023-05-05T09:05:18.197Z,5.87
2023-05-05T09:07:45.168Z,5.13
2023-05-05T09:10:12.323Z,6.78
2023-05-05T09:12:42.662Z,8.65
2023-05-05T09:15:11.563Z,2.42
2023-05-05T09:17:39.360Z,3.97
2023-05-05T09:20:10.298Z,3.20
2023-05-05T09:22:40.847Z,5.20
2023-05-05T09:25:11.926Z,2.97
2023-05-05T09:27:42.224Z,4.95
2023-05-05T09:30:10.765Z,3.90
2023-05-05T09:32:48.844Z,10.25
2023-05-05T09:35:18.098Z,3.47
2023-05-05T09:37:44.920Z,4.22
2023-05-05T09:40:13.481Z,4.97
2023-05-05T09:42:40.964Z,5.07
2023-05-05T09:45:19.300Z,5.82
2023-05-05T09:47:47.268Z,3.45
2023-05-05T09:50:16.036Z,4.15
2023-05-05T09:52:43.299Z,5.88
2023-05-05T09:55:18.098Z,6.10
2023-05-05T09:57:44.561Z,6.70
2023-05-05T10:00:12.456Z,6.63
2023-05-05T10:02:39.543Z,5.90
2023-05-05T10:05:09.133Z,6.78
2023-05-05T10:07:37.063Z,7.87
2023-05-05T10:10:05.807Z,10.90
2023-05-05T10:12:35.660Z,8.15
2023-05-05T10:15:06.786Z,6.32
2023-05-05T10:17:38.452Z,3.75
2023-05-05T10:20:09.452Z,5.30
2023-05-05T10:22:36.256Z,9.82
2023-05-05T10:25:15.384Z,13.45
2023-05-05T10:27:50.674Z,16.63
2023-05-05T10:30:22.630Z,5.72
2023-05-05T10:33:08.006Z,11.67
2023-05-05T10:35:44.648Z,25.95
2023-05-05T10:38:13.003Z,10.02
2023-05-05T10:40:45.829Z,21.50
2023-05-05T10:43:14.452Z,10.57
2023-05-05T10:45:42.718Z,4.23
2023-05-05T10:48:18.712Z,4.00
2023-05-05T10:50:53.064Z,3.80
2023-05-05T10:53:27.740Z,5.50
2023-05-05T10:56:02.487Z,3.90
2023-05-05T10:58:46.862Z,7.07
2023-05-05T11:01:32.423Z,7.22
2023-05-05T11:04:23.789Z,3.15
2023-05-05T11:07:10.447Z,10.77
2023-05-05T11:09:55.653Z,6.05
2023-05-05T11:12:22.239Z,5.40
2023-05-05T11:15:26.902Z,6.57
2023-05-05T11:18:02.631Z,5.90
2023-05-05T11:20:40.453Z,4.35
2023-05-05T11:23:06.959Z,10.20
2023-05-05T11:25:36.666Z,8.73
2023-05-05T11:28:11.576Z,4.82
2023-05-05T11:31:01.357Z,3.60
2023-05-05T11:33:38.934Z,5.93
2023-05-05T11:36:07.618Z,8.82
2023-05-05T11:38:40.012Z,47.83
2023-05-05T11:41:13.994Z,41.40
2023-05-05T11:43:41.807Z,13.75
2023-05-05T11:46:15.642Z,10.30
2023-05-05T11:48:50.092Z,10.00
2023-05-05T11:51:19.692Z,7.50
2023-05-05T11:53:48.436Z,11.45
2023-05-05T11:56:20.499Z,7.57
2023-05-05T11:59:04.715Z,10.82
2023-05-05T12:01:31.282Z,10.18
2023-05-05T12:03:58.081Z,8.30
2023-05-05T12:06:24.836Z,9.05
2023-05-05T12:08:51.385Z,9.48
2023-05-05T12:11:18.776Z,12.85
2023-05-05T12:13:46.396Z,9.15
2023-05-05T12:16:14.912Z,6.80
2023-05-05T12:18:42.426Z,7.45
2023-05-05T12:21:19.363Z,8.75
2023-05-05T12:23:46.110Z,6.78
2023-05-05T12:26:29.701Z,4.43
2023-05-05T12:29:00.289Z,9.20
2023-05-05T12:31:37.799Z,7.25
2023-05-05T12:34:05.385Z,7.05
2023-05-05T12:36:35.808Z,7.00
2023-05-05T12:39:05.008Z,7.45
2023-05-05T12:41:32.453Z,8.33
2023-05-05T12:44:00.286Z,6.38
2023-05-05T12:46:29.561Z,7.50
2023-05-05T12:49:05.250Z,7.93
2023-05-05T12:51:33.233Z,7.78
2023-05-05T12:54:11.364Z,6.47
2023-05-05T12:56:40.549Z,16.85
2023-05-05T12:59:09.818Z,7.88
2023-05-05T13:01:37.876Z,9.00
2023-05-05T13:04:14.476Z,6.00
2023-05-05T13:06:43.309Z,15.00
2023-05-05T13:09:22.546Z,12.13
2023-05-05T13:11:49.106Z,8.32
2023-05-05T13:14:15.558Z,8.90
2023-05-05T13:16:42.025Z,9.73
2023-05-05T13:19:08.529Z,11.47
2023-05-05T13:21:35.481Z,10.13
2023-05-05T13:24:18.922Z,11.23
2023-05-05T13:26:47.762Z,10.90
2023-05-05T13:29:14.687Z,8.50
2023-05-05T13:31:41.551Z,9.40
2023-05-05T13:34:08.189Z,6.85
2023-05-05T13:36:34.906Z,8.20
2023-05-05T13:39:01.910Z,10.10
2023-05-05T13:41:28.409Z,9.18
2023-05-05T13:43:54.993Z,8.50
2023-05-05T13:46:21.518Z,6.93
2023-05-05T13:48:47.998Z,7.28
2023-05-05T13:51:15.857Z,6.32
2023-05-05T13:53:46.506Z,8.88
2023-05-05T13:56:13.678Z,5.53
2023-05-05T13:58:40.634Z,7.53
2023-05-05T14:01:07.226Z,8.27
2023-05-05T14:03:33.884Z,8.05
2023-05-05T14:06:00.297Z,6.32
2023-05-05T14:08:26.728Z,4.77
2023-05-05T14:10:53.176Z,5.32
2023-05-05T14:13:19.807Z,5.43
2023-05-05T14:15:47.106Z,7.05
2023-05-05T14:18:13.545Z,5.63
2023-05-05T14:20:39.999Z,4.40
2023-05-05T14:23:06.496Z,4.13
2023-05-05T14:25:32.972Z,2.95
2023-05-05T14:27:59.502Z,6.13
2023-05-05T14:30:25.980Z,6.15
2023-05-05T14:32:52.874Z,9.60
2023-05-05T14:35:19.306Z,3.80
2023-05-05T14:37:45.728Z,3.08
2023-05-05T14:40:12.226Z,3.47
2023-05-05T14:42:38.839Z,3.00
2023-05-05T14:45:06.459Z,2.63
2023-05-05T14:47:33.708Z,3.13
2023-05-05T14:50:00.304Z,2.00
2023-05-05T14:52:26.939Z,2.70
2023-05-05T14:54:53.398Z,3.85
2023-05-05T14:57:19.928Z,2.60
2023-05-05T14:59:46.349Z,4.50
2023-05-05T15:02:12.775Z,2.17
2023-05-05T15:04:39.388Z,4.60
2023-05-05T15:07:05.839Z,2.70
2023-05-05T15:09:32.357Z,4.87
2023-05-05T15:11:59.085Z,5.22
2023-05-05T15:14:26.517Z,2.10
2023-05-05T15:16:52.932Z,2.47
2023-05-05T15:19:19.390Z,1.42
2023-05-05T15:21:45.943Z,1.97
2023-05-05T15:24:12.411Z,2.45
2023-05-05T15:26:38.883Z,3.30
2023-05-05T15:29:05.393Z,3.22
2023-05-05T15:31:32.026Z,4.53
2023-05-05T15:33:58.550Z,4.53
2023-05-05T15:36:25.026Z,3.38
2023-05-05T15:38:51.659Z,3.58
2023-05-05T15:41:18.092Z,2.80
2023-05-05T15:43:44.509Z,3.40
2023-05-05T15:46:11.029Z,2.20
2023-05-05T15:48:37.518Z,1.98
2023-05-05T15:51:04.257Z,1.55
2023-05-05T15:53:30.747Z,2.05
2023-05-05T15:55:57.352Z,1.33
2023-05-05T15:58:23.829Z,2.70
2023-05-05T16:00:50.350Z,2.53
2023-05-05T16:03:17.878Z,3.63
2023-05-05T16:05:44.527Z,1.45
2023-05-05T16:08:10.963Z,2.30
2023-05-05T16:10:37.555Z,2.23
2023-05-05T16:13:04.158Z,4.00
2023-05-05T16:15:30.920Z,3.25
2023-05-05T16:17:57.381Z,2.22
2023-05-05T16:20:24.277Z,1.77
2023-05-05T16:22:51.179Z,2.90
2023-05-05T16:25:19.762Z,2.28
2023-05-05T16:27:46.262Z,1.63
2023-05-05T16:30:15.268Z,2.63
2023-05-05T16:32:42.202Z,3.00
2023-05-05T16:35:09.303Z,2.13
2023-05-05T16:37:36.074Z,3.58
2023-05-05T16:40:05.381Z,2.33
2023-05-05T16:42:31.968Z,1.92
2023-05-05T16:44:58.377Z,2.35
2023-05-05T16:47:25.439Z,1.10
2023-05-05T16:49:52.571Z,4.15
2023-05-05T16:52:19.151Z,2.53
2023-05-05T16:54:46.481Z,4.57
2023-05-05T16:57:13.669Z,2.83
2023-05-05T16:59:41.774Z,1.43
2023-05-05T17:02:08.319Z,0.93
2023-05-05T17:04:34.829Z,1.35
2023-05-05T17:07:01.352Z,3.08
2023-05-05T17:09:27.833Z,2.60
2023-05-05T17:11:54.325Z,1.30
2023-05-05T17:14:20.861Z,0.77
2023-05-05T17:16:47.385Z,7.57
2023-05-05T17:19:13.886Z,0.88
2023-05-05T17:21:40.409Z,1.67
2023-05-05T17:24:08.311Z,1.10
2023-05-05T17:26:34.975Z,1.05
2023-05-05T17:29:01.432Z,1.88
2023-05-05T17:31:27.933Z,1.98
2023-05-05T17:33:54.409Z,1.15
2023-05-05T17:36:21.229Z,0.87
2023-05-05T17:38:47.670Z,1.13
2023-05-05T17:41:14.065Z,0.82
2023-05-05T17:43:40.952Z,2.00
2023-05-05T17:46:07.447Z,1.33
2023-05-05T17:48:34.074Z,1.20
2023-05-05T17:51:00.491Z,1.83
2023-05-05T17:53:27.328Z,1.27
2023-05-05T17:55:54.479Z,2.25
2023-05-05T17:58:20.930Z,1.45
2023-05-05T18:00:47.476Z,1.10
2023-05-05T18:03:14.075Z,1.60
2023-05-05T18:05:40.582Z,1.45
2023-05-05T18:08:07.193Z,1.95
2023-05-05T18:10:33.821Z,1.77
2023-05-05T18:13:00.473Z,0.97
2023-05-05T18:15:27.164Z,1.20
2023-05-05T18:17:53.907Z,2.15
2023-05-05T18:20:20.320Z,1.38
2023-05-05T18:22:47.088Z,1.40
2023-05-05T18:25:13.856Z,1.43
2023-05-05T18:27:41.154Z,2.38
2023-05-05T18:30:08.266Z,3.33
2023-05-05T18:32:34.898Z,3.38
2023-05-05T18:35:01.430Z,2.90
2023-05-05T18:37:28.049Z,1.80
2023-05-05T18:39:54.611Z,1.40
2023-05-05T18:42:21.031Z,2.17
2023-05-05T18:44:47.553Z,2.65
2023-05-05T18:47:13.979Z,2.13
2023-05-05T18:49:40.458Z,1.57
2023-05-05T18:52:06.920Z,2.13
2023-05-05T18:54:34.284Z,2.35
2023-05-05T18:57:01.720Z,4.30
2023-05-05T18:59:28.198Z,1.75
2023-05-05T19:01:54.672Z,2.90
2023-05-05T19:04:30.801Z,2.88
2023-05-05T19:06:58.824Z,3.80
2023-05-05T19:09:25.420Z,2.80
2023-05-05T19:11:51.866Z,3.88
2023-05-05T19:14:18.438Z,4.23
2023-05-05T19:16:44.928Z,2.95
2023-05-05T19:19:11.428Z,2.78
2023-05-05T19:21:38.241Z,2.17
2023-05-05T19:24:08.201Z,3.60
2023-05-05T19:26:34.731Z,5.53
2023-05-05T19:29:01.276Z,7.72
2023-05-05T19:31:27.914Z,3.80
2023-05-05T19:33:59.123Z,4.22
2023-05-05T19:36:25.999Z,4.55
2023-05-05T19:38:52.466Z,3.03
2023-05-05T19:41:19.177Z,5.22
2023-05-05T19:43:49.978Z,6.97
2023-05-05T19:46:17.203Z,5.95
2023-05-05T19:48:44.077Z,7.35
2023-05-05T19:51:10.489Z,6.77
2023-05-05T19:53:36.942Z,4.50
2023-05-05T19:56:04.774Z,7.10
2023-05-05T19:58:34.016Z,7.53
2023-05-05T20:01:00.527Z,7.03
2023-05-05T20:03:27.095Z,7.17
2023-05-05T20:05:53.657Z,57.45
2023-05-05T20:08:20.252Z,40.47
2023-05-05T20:10:46.910Z,10.57
2023-05-05T20:13:13.708Z,6.38
2023-05-05T20:15:40.167Z,5.83
2023-05-05T20:18:06.789Z,5.55
2023-05-05T20:20:33.397Z,6.22
2023-05-05T20:22:59.800Z,5.60
2023-05-05T20:25:26.863Z,5.35
2023-05-05T20:27:53.300Z,5.33
2023-05-05T20:30:20.108Z,4.95
2023-05-05T20:32:46.602Z,4.95
2023-05-05T20:35:13.135Z,6.00
2023-05-05T20:37:39.659Z,6.88
2023-05-05T20:40:07.249Z,5.27
2023-05-05T20:42:33.931Z,5.65
2023-05-05T20:45:00.933Z,5.07
2023-05-05T20:47:27.405Z,5.95
2023-05-05T20:49:54.275Z,7.63
2023-05-05T20:52:20.849Z,6.53
2023-05-05T20:54:47.393Z,6.13
2023-05-05T20:57:13.886Z,7.15
2023-05-05T20:59:40.374Z,6.55
2023-05-05T21:02:07.431Z,7.18
2023-05-05T21:04:33.941Z,10.57
2023-05-05T21:07:00.527Z,9.02
2023-05-05T21:09:27.045Z,6.93
2023-05-05T21:11:53.516Z,7.72
2023-05-05T21:14:20.057Z,7.85
2023-05-05T21:16:46.606Z,8.07
2023-05-05T21:19:13.173Z,8.68
2023-05-05T21:21:39.603Z,6.72
2023-05-05T21:24:08.099Z,6.15
2023-05-05T21:26:34.747Z,7.75
2023-05-05T21:29:01.513Z,5.70
2023-05-05T21:31:27.942Z,7.53
2023-05-05T21:33:54.429Z,5.78
2023-05-05T21:36:21.260Z,6.40
2023-05-05T21:38:47.873Z,6.60
2023-05-05T21:41:14.400Z,5.87
2023-05-05T21:43:41.128Z,5.45
2023-05-05T21:46:07.776Z,6.78
2023-05-05T21:48:34.301Z,5.40
2023-05-05T21:51:00.904Z,5.80
2023-05-05T21:53:27.371Z,6.73
2023-05-05T21:55:53.800Z,7.50
2023-05-05T21:58:20.397Z,5.70
2023-05-05T22:00:49.693Z,6.30
2023-05-05T22:03:16.484Z,5.25
2023-05-05T22:05:43.076Z,8.60
2023-05-05T22:08:09.590Z,5.50
2023-05-05T22:10:36.015Z,7.10
2023-05-05T22:13:02.480Z,7.30
2023-05-05T22:15:35.711Z,7.80
2023-05-05T22:18:09.675Z,6.43
2023-05-05T22:20:37.123Z,6.65
2023-05-05T22:23:03.538Z,6.53
2023-05-05T22:25:29.970Z,7.90
2023-05-05T22:27:56.553Z,6.18
2023-05-05T22:30:22.971Z,6.27
2023-05-05T22:32:49.465Z,11.40
2023-05-05T22:35:15.892Z,5.75
2023-05-05T22:37:42.353Z,7.35
2023-05-05T22:40:10.025Z,6.53
2023-05-05T22:42:36.780Z,8.47
2023-05-05T22:45:03.289Z,7.43
2023-05-05T22:47:30.865Z,5.68
2023-05-05T22:49:57.832Z,6.90
2023-05-05T22:52:25.674Z,6.38
2023-05-05T22:54:52.200Z,8.30
2023-05-05T22:57:18.668Z,7.03
2023-05-05T22:59:45.085Z,9.32
2023-05-05T23:02:11.525Z,15.48
2023-05-05T23:04:37.995Z,9.77
2023-05-05T23:07:04.495Z,6.67
2023-05-05T23:09:30.991Z,8.05
2023-05-05T23:11:57.405Z,8.27
2023-05-05T23:14:23.882Z,7.35
2023-05-05T23:16:50.448Z,7.47
2023-05-05T23:19:16.951Z,7.47
2023-05-05T23:21:52.696Z,9.00
2023-05-05T23:24:20.082Z,8.88
2023-05-05T23:26:46.510Z,11.02
2023-05-05T23:29:12.969Z,12.63
2023-05-05T23:31:39.413Z,11.67
2023-05-05T23:34:05.838Z,10.85
2023-05-05T23:36:32.280Z,13.73
2023-05-05T23:38:58.707Z,15.95
2023-05-05T23:41:25.277Z,13.82
2023-05-05T23:43:51.730Z,13.43
2023-05-05T23:46:18.238Z,17.77
2023-05-05T23:48:44.791Z,14.32
2023-05-05T23:51:11.246Z,13.85
2023-05-05T23:53:37.680Z,13.10
2023-05-05T23:56:04.339Z,12.50
2023-05-05T23:58:30.750Z,14.38
